Time;durP1;ratioP1;P1;durP2;ratioP2;P2;SDS_P1;SDS_P2;PMS_P1;PMS_P2;Temp;Humidity;BMP_temperature;BMP_pressure;BME280_temperature;BME280_humidity;BME280_pressure;Samples;Min_cycle;Max_cycle;Signal;HPM_P1;HPM_P2
2022/12/23 00:00:09;;;;;;;2.93;0.90;;;9.30;99.90;;;;;;6254866;22;20180;-88
2022/12/23 00:02:36;;;;;;;1.60;1.10;;;9.30;99.90;;;;;;6280133;22;20172;-87
2022/12/23 00:05:03;;;;;;;3.27;1.70;;;9.30;99.90;;;;;;6255115;22;20190;-87
2022/12/23 00:07:29;;;;;;;3.67;1.50;;;9.30;99.90;;;;;;6255122;22;20152;-87
2022/12/23 00:09:55;;;;;;;3.07;1.33;;;9.30;99.90;;;;;;6254455;22;20162;-87
2022/12/23 00:15:05;;;;;;;2.37;1.20;;;9.30;99.90;;;;;;6279930;22;20160;-87
2022/12/23 00:17:40;;;;;;;2.47;1.50;;;9.30;99.90;;;;;;6254953;22;20160;-88
2022/12/23 00:20:07;;;;;;;2.20;1.50;;;9.30;99.90;;;;;;6254260;22;20163;-87
2022/12/23 00:25:17;;;;;;;2.67;1.27;;;9.30;99.90;;;;;;6280492;22;20160;-87
2022/12/23 00:28:00;;;;;;;3.37;0.90;;;9.30;99.90;;;;;;6280263;22;20209;-87
2022/12/23 00:30:27;;;;;;;1.63;1.07;;;9.30;99.90;;;;;;6254547;22;20278;-87
2022/12/23 00:32:53;;;;;;;1.23;1.00;;;9.30;99.90;;;;;;6254328;22;20176;-88
2022/12/23 00:35:19;;;;;;;3.03;1.20;;;9.30;99.90;;;;;;6254260;22;20163;-87
2022/12/23 00:37:45;;;;;;;1.40;0.90;;;9.30;99.90;;;;;;6254229;22;20621;-87
2022/12/23 00:43:04;;;;;;;1.70;1.10;;;9.30;99.90;;;;;;6279753;22;20162;-88
2022/12/23 00:45:30;;;;;;;2.97;1.30;;;9.30;99.90;;;;;;6254608;22;20179;-87
2022/12/23 00:50:40;;;;;;;2.70;1.33;;;9.40;99.90;;;;;;6279685;22;20156;-87
2022/12/23 00:53:06;;;;;;;3.23;1.70;;;9.40;99.90;;;;;;6254762;22;20167;-87
2022/12/23 00:55:32;;;;;;;1.70;1.20;;;9.40;99.90;;;;;;6279787;22;20241;-88
2022/12/23 00:57:58;;;;;;;3.33;1.40;;;9.40;99.90;;;;;;6254546;22;20156;-87
2022/12/23 01:05:35;;;;;;;2.63;1.40;;;9.30;99.90;;;;;;6254351;22;20329;-87
2022/12/23 01:06:02;;;;;;;2.07;1.10;;;9.40;99.90;;;;;;6305913;22;20153;-88
2022/12/23 01:08:28;;;;;;;2.53;0.93;;;9.40;99.90;;;;;;6279874;22;20152;-87
2022/12/23 01:10:54;;;;;;;1.53;0.97;;;9.40;99.90;;;;;;6254491;22;20225;-88
2022/12/23 01:13:20;;;;;;;2.03;1.17;;;9.40;99.90;;;;;;6255510;22;20187;-88
2022/12/23 01:15:46;;;;;;;1.90;0.80;;;9.40;99.90;;;;;;6279895;22;20241;-88
2022/12/23 01:18:12;;;;;;;1.47;0.90;;;9.40;99.90;;;;;;6254212;22;20191;-88
2022/12/23 01:20:39;;;;;;;1.27;0.73;;;9.40;99.90;;;;;;6279590;22;20175;-88
2022/12/23 01:23:06;;;;;;;1.67;0.80;;;9.50;99.90;;;;;;6253669;22;20183;-88
2022/12/23 01:25:32;;;;;;;1.80;0.70;;;9.50;99.90;;;;;;6279813;22;20258;-87
2022/12/23 01:27:58;;;;;;;1.30;0.60;;;9.50;99.90;;;;;;6253829;22;20181;-88
2022/12/23 01:30:24;;;;;;;1.47;0.77;;;9.60;99.90;;;;;;6254107;22;20484;-88
2022/12/23 01:32:50;;;;;;;1.57;0.80;;;9.60;99.90;;;;;;6279753;22;20549;-88
2022/12/23 01:35:16;;;;;;;0.87;0.70;;;9.60;99.90;;;;;;6280013;22;20152;-88
2022/12/23 01:37:42;;;;;;;0.70;0.63;;;9.60;99.90;;;;;;6278775;22;20229;-88
2022/12/23 01:40:08;;;;;;;0.60;0.60;;;9.60;99.90;;;;;;6278151;22;20174;-88
2022/12/23 01:42:43;;;;;;;0.97;0.57;;;9.70;99.90;;;;;;6252724;22;20234;-88
2022/12/23 01:45:19;;;;;;;2.77;0.80;;;9.70;99.90;;;;;;6278436;22;20147;-88
2022/12/23 01:47:55;;;;;;;1.40;0.60;;;9.70;99.90;;;;;;6255193;22;20146;-88
2022/12/23 01:50:39;;;;;;;1.00;0.60;;;9.70;99.90;;;;;;6255319;22;20156;-87
2022/12/23 01:53:24;;;;;;;1.17;0.63;;;9.80;99.90;;;;;;6255899;22;20153;-88
2022/12/23 01:56:13;;;;;;;0.67;0.50;;;9.80;99.90;;;;;;6255566;22;20164;-88
2022/12/23 01:58:49;;;;;;;0.87;0.50;;;9.80;99.90;;;;;;6256443;22;20243;-88
2022/12/23 02:04:03;;;;;;;0.97;0.60;;;9.80;99.90;;;;;;6284377;22;20160;-88
2022/12/23 02:09:28;;;;;;;1.07;0.80;;;9.80;99.90;;;;;;6282133;22;20200;-88
2022/12/23 02:12:12;;;;;;;2.00;0.50;;;9.80;99.90;;;;;;6281755;22;20234;-87
2022/12/23 02:17:53;;;;;;;0.90;0.60;;;9.80;99.90;;;;;;6281559;22;20153;-88
2022/12/23 02:20:31;;;;;;;0.60;0.60;;;9.80;99.90;;;;;;6255917;22;20180;-88
2022/12/23 02:23:22;;;;;;;0.40;0.40;;;9.80;99.90;;;;;;6255998;22;20164;-88
2022/12/23 02:26:14;;;;;;;0.77;0.50;;;9.80;99.90;;;;;;6255959;22;20162;-88
2022/12/23 02:29:10;;;;;;;0.90;0.57;;;9.80;99.90;;;;;;6256012;22;20148;-88
2022/12/23 02:31:58;;;;;;;0.60;0.50;;;9.90;99.90;;;;;;6255445;22;20184;-87
2022/12/23 02:34:32;;;;;;;1.17;0.50;;;9.90;99.90;;;;;;6255774;22;20161;-88
2022/12/23 02:37:13;;;;;;;1.13;0.60;;;9.90;99.90;;;;;;6255765;22;20650;-88
2022/12/23 02:39:54;;;;;;;0.40;0.40;;;9.90;99.90;;;;;;6255505;22;20165;-88
2022/12/23 02:42:28;;;;;;;0.30;0.30;;;9.90;99.90;;;;;;6255964;22;20187;-88
2022/12/23 02:45:17;;;;;;;0.40;0.40;;;10.00;99.90;;;;;;6255575;22;20152;-88
2022/12/23 02:47:51;;;;;;;0.57;0.57;;;10.00;99.90;;;;;;6281175;22;20148;-88
2022/12/23 02:50:22;;;;;;;2.13;0.50;;;10.00;99.90;;;;;;6255410;22;20161;-88
2022/12/23 02:52:51;;;;;;;0.87;0.50;;;10.00;99.90;;;;;;6280978;22;20200;-88
2022/12/23 02:55:22;;;;;;;2.07;0.40;;;10.10;99.90;;;;;;6254987;22;20184;-88
2022/12/23 02:57:50;;;;;;;1.30;0.40;;;10.10;99.90;;;;;;6254700;22;20157;-88
2022/12/23 03:00:17;;;;;;;0.40;0.40;;;10.10;99.90;;;;;;6255436;22;20160;-88
2022/12/23 03:02:43;;;;;;;0.40;0.40;;;10.10;99.90;;;;;;6255231;22;20178;-88
2022/12/23 03:05:37;;;;;;;0.50;0.50;;;10.10;99.90;;;;;;6280780;22;20161;-88
2022/12/23 03:08:09;;;;;;;0.63;0.40;;;10.10;99.90;;;;;;6255620;22;20148;-88
2022/12/23 03:10:50;;;;;;;0.40;0.40;;;10.10;99.90;;;;;;6255244;22;20154;-88
2022/12/23 03:13:47;;;;;;;1.10;0.30;;;10.20;99.90;;;;;;6255284;22;20571;-88
2022/12/23 03:16:19;;;;;;;0.70;0.50;;;10.20;99.90;;;;;;6255724;22;20157;-88
2022/12/23 03:18:54;;;;;;;1.20;0.50;;;10.20;99.90;;;;;;6255207;22;20156;-88
2022/12/23 03:21:29;;;;;;;0.60;0.43;;;10.20;99.90;;;;;;6255422;22;20188;-88
2022/12/23 03:24:23;;;;;;;1.50;0.50;;;10.20;99.90;;;;;;6255028;22;20157;-88
2022/12/23 03:26:53;;;;;;;0.27;0.27;;;10.20;99.90;;;;;;6255088;22;20181;-88
2022/12/23 03:29:28;;;;;;;0.40;0.40;;;10.20;99.90;;;;;;6255300;22;20198;-88
2022/12/23 03:31:57;;;;;;;0.70;0.40;;;10.30;99.90;;;;;;6280502;22;20187;-88
2022/12/23 03:34:28;;;;;;;0.57;0.57;;;10.30;99.90;;;;;;6255174;22;20166;-88
2022/12/23 03:36:59;;;;;;;0.50;0.50;;;10.30;99.90;;;;;;6255099;22;20181;-88
2022/12/23 03:39:33;;;;;;;0.40;0.40;;;10.30;99.90;;;;;;6254653;22;20188;-88
2022/12/23 03:42:16;;;;;;;1.10;0.40;;;10.30;99.90;;;;;;6254789;22;20189;-88
2022/12/23 03:44:45;;;;;;;1.33;0.53;;;10.30;99.90;;;;;;6254967;22;20160;-88
2022/12/23 03:47:33;;;;;;;0.80;0.60;;;10.30;99.90;;;;;;6254918;22;20179;-88
2022/12/23 03:50:04;;;;;;;0.50;0.50;;;10.30;99.90;;;;;;6280409;22;20153;-88
2022/12/23 03:52:36;;;;;;;0.50;0.50;;;10.30;99.90;;;;;;6255445;22;20236;-88
2022/12/23 03:55:11;;;;;;;0.83;0.60;;;10.30;99.90;;;;;;6254468;22;20248;-88
2022/12/23 03:57:43;;;;;;;0.60;0.60;;;10.20;99.90;;;;;;6255057;22;20179;-88
2022/12/23 04:00:10;;;;;;;0.50;0.50;;;10.20;99.90;;;;;;6280684;22;20147;-87
2022/12/23 04:02:45;;;;;;;0.97;0.50;;;10.20;99.90;;;;;;6254664;22;20184;-88
2022/12/23 04:05:25;;;;;;;0.80;0.67;;;10.20;99.90;;;;;;6254336;22;20155;-88
2022/12/23 04:08:11;;;;;;;1.03;0.80;;;10.20;99.90;;;;;;6254848;22;20241;-87
2022/12/23 04:10:37;;;;;;;1.00;0.70;;;10.20;99.90;;;;;;6280231;22;20160;-88
2022/12/23 04:13:03;;;;;;;0.80;0.80;;;10.10;99.90;;;;;;6254833;22;20157;-88
2022/12/23 04:15:29;;;;;;;0.80;0.80;;;10.10;99.90;;;;;;6280071;22;20160;-88
2022/12/23 04:17:56;;;;;;;1.07;0.97;;;10.10;99.90;;;;;;6280415;22;20149;-88
2022/12/23 04:20:23;;;;;;;1.43;0.80;;;10.10;99.90;;;;;;6254800;22;20164;-88
2022/12/23 04:22:49;;;;;;;0.90;0.90;;;10.10;99.90;;;;;;6254310;22;20168;-87
2022/12/23 04:25:16;;;;;;;1.30;1.10;;;10.10;99.90;;;;;;6254483;22;20160;-88
2022/12/23 04:27:42;;;;;;;2.23;1.20;;;10.10;99.90;;;;;;6254757;22;20195;-88
2022/12/23 04:30:10;;;;;;;0.73;0.73;;;10.10;99.90;;;;;;6279577;22;20157;-88
2022/12/23 04:32:37;;;;;;;2.77;1.10;;;10.10;99.90;;;;;;6255094;22;20199;-88
2022/12/23 04:35:03;;;;;;;1.27;1.13;;;10.10;99.90;;;;;;6306303;22;20148;-88
2022/12/23 04:37:29;;;;;;;1.60;1.30;;;10.10;99.90;;;;;;6254968;22;20159;-87
2022/12/23 04:39:55;;;;;;;2.50;1.50;;;10.10;99.90;;;;;;6280252;22;20227;-87
2022/12/23 04:42:22;;;;;;;4.50;1.60;;;10.10;99.90;;;;;;6255261;22;20190;-87
2022/12/23 04:44:48;;;;;;;2.30;1.80;;;10.10;99.90;;;;;;6280150;22;20167;-87
2022/12/23 04:47:14;;;;;;;3.00;2.00;;;10.10;99.90;;;;;;6280539;22;20153;-88
2022/12/23 04:49:40;;;;;;;4.13;1.63;;;10.10;99.90;;;;;;6254929;22;20153;-88
2022/12/23 04:52:06;;;;;;;1.60;1.40;;;10.10;99.90;;;;;;6255316;22;20177;-88
2022/12/23 04:54:43;;;;;;;1.40;1.30;;;10.10;99.90;;;;;;6280306;22;20214;-87
2022/12/23 04:57:09;;;;;;;2.20;1.23;;;10.10;99.90;;;;;;6254657;22;20148;-88
2022/12/23 04:59:34;;;;;;;2.23;1.20;;;10.10;99.90;;;;;;6280499;22;20185;-88
2022/12/23 05:02:01;;;;;;;1.77;1.57;;;10.10;99.90;;;;;;6279366;22;20193;-88
2022/12/23 05:04:26;;;;;;;1.40;1.30;;;10.00;99.90;;;;;;6254822;22;20152;-87
2022/12/23 05:06:52;;;;;;;1.50;1.20;;;10.00;99.90;;;;;;6280518;22;20148;-88
2022/12/23 05:09:18;;;;;;;2.03;1.83;;;10.00;99.90;;;;;;6280107;22;20191;-87
2022/12/23 05:11:44;;;;;;;3.80;3.40;;;10.00;99.90;;;;;;6254769;22;20180;-87
2022/12/23 05:14:10;;;;;;;2.87;2.37;;;10.00;99.90;;;;;;6254886;22;20161;-88
2022/12/23 05:16:36;;;;;;;2.87;1.87;;;10.00;99.90;;;;;;6280513;22;20162;-88
2022/12/23 05:19:02;;;;;;;3.23;1.87;;;10.00;99.90;;;;;;6255166;22;20161;-87
2022/12/23 05:21:28;;;;;;;3.13;2.40;;;10.00;99.90;;;;;;6280082;22;20296;-88
2022/12/23 05:23:55;;;;;;;2.20;1.97;;;10.00;99.90;;;;;;6253513;22;20150;-88
2022/12/23 05:26:21;;;;;;;2.00;1.50;;;10.00;99.90;;;;;;6254997;22;20152;-88
2022/12/23 05:28:47;;;;;;;2.53;1.40;;;10.00;99.90;;;;;;6254869;22;20156;-88
2022/12/23 05:31:13;;;;;;;2.37;1.40;;;10.00;99.90;;;;;;6279961;22;20212;-88
2022/12/23 05:33:39;;;;;;;2.17;1.50;;;10.00;99.90;;;;;;6254470;22;20161;-88
2022/12/23 05:36:05;;;;;;;2.10;1.27;;;10.10;99.90;;;;;;6280288;22;20171;-87
2022/12/23 05:38:31;;;;;;;1.13;1.00;;;10.10;99.90;;;;;;6254819;22;20239;-87
2022/12/23 05:40:57;;;;;;;1.40;1.30;;;10.10;99.90;;;;;;6254287;22;20216;-88
2022/12/23 05:43:24;;;;;;;1.57;1.47;;;10.10;99.90;;;;;;6254845;22;20157;-88
2022/12/23 05:45:50;;;;;;;2.60;1.50;;;10.10;99.90;;;;;;6280033;22;20192;-88
2022/12/23 05:48:17;;;;;;;1.40;1.30;;;10.10;99.90;;;;;;6279945;22;20238;-88
2022/12/23 05:50:42;;;;;;;2.17;0.90;;;10.10;99.90;;;;;;6254499;22;20159;-87
2022/12/23 05:53:09;;;;;;;0.83;0.80;;;10.10;99.90;;;;;;6254458;22;20163;-88
2022/12/23 05:55:35;;;;;;;0.63;0.60;;;10.10;99.90;;;;;;6254818;22;20193;-88
2022/12/23 05:58:03;;;;;;;1.27;0.60;;;10.10;99.90;;;;;;6254382;22;20162;-87
2022/12/23 06:00:34;;;;;;;0.60;0.60;;;10.20;99.90;;;;;;6254245;22;20161;-88
2022/12/23 06:03:00;;;;;;;1.27;0.60;;;10.20;99.90;;;;;;6254908;22;20208;-88
2022/12/23 06:05:26;;;;;;;0.77;0.77;;;10.20;99.90;;;;;;6254181;22;20159;-87
2022/12/23 06:07:52;;;;;;;0.97;0.60;;;10.10;99.90;;;;;;6254546;22;20152;-88
2022/12/23 06:10:18;;;;;;;0.73;0.60;;;10.10;99.90;;;;;;6254142;22;20597;-88
2022/12/23 06:12:44;;;;;;;0.73;0.60;;;10.10;99.90;;;;;;6254301;22;20184;-88
2022/12/23 06:15:10;;;;;;;0.50;0.50;;;10.10;99.90;;;;;;6306270;22;20159;-88
2022/12/23 06:17:36;;;;;;;29.57;26.43;;;10.10;99.90;;;;;;6279989;22;20157;-88
2022/12/23 06:20:03;;;;;;;3.93;2.77;;;10.10;99.90;;;;;;6278597;22;20156;-88
2022/12/23 06:22:30;;;;;;;1.80;1.40;;;10.10;99.90;;;;;;6254293;22;20184;-87
2022/12/23 06:24:56;;;;;;;8.30;5.70;;;10.10;99.90;;;;;;6254276;22;20167;-87
2022/12/23 06:27:22;;;;;;;1.93;1.83;;;10.10;99.90;;;;;;6254288;22;20157;-87
2022/12/23 06:29:47;;;;;;;21.03;17.80;;;10.10;99.90;;;;;;6254152;22;20158;-88
2022/12/23 06:32:14;;;;;;;10.87;9.77;;;10.10;99.90;;;;;;6280594;22;20187;-87
2022/12/23 06:34:39;;;;;;;18.23;15.10;;;10.10;99.90;;;;;;6282062;22;20168;-87
2022/12/23 06:37:05;;;;;;;9.50;8.57;;;10.00;99.90;;;;;;6281651;22;20244;-87
2022/12/23 06:39:31;;;;;;;8.07;5.83;;;10.00;99.90;;;;;;6281526;22;20219;-87
2022/12/23 06:41:57;;;;;;;23.37;17.83;;;10.00;99.90;;;;;;6281237;22;20191;-87
2022/12/23 06:44:23;;;;;;;15.73;10.60;;;10.00;99.90;;;;;;6255866;22;20151;-87
2022/12/23 06:46:49;;;;;;;21.60;18.33;;;10.00;99.90;;;;;;6255848;22;20210;-86
2022/12/23 06:49:15;;;;;;;63.10;42.70;;;10.00;99.90;;;;;;6281476;22;20153;-87
2022/12/23 06:51:41;;;;;;;11.00;7.73;;;10.00;99.90;;;;;;6281481;22;20180;-87
2022/12/23 06:54:10;;;;;;;1.67;1.07;;;9.90;99.90;;;;;;6255748;22;20240;-84
2022/12/23 06:56:37;;;;;;;1.40;1.30;;;9.90;99.90;;;;;;6255616;22;20195;-87
2022/12/23 06:59:03;;;;;;;116.20;83.90;;;9.90;99.90;;;;;;6282003;22;20159;-88
2022/12/23 07:01:29;;;;;;;7.07;5.37;;;9.90;99.90;;;;;;6281524;22;20189;-88
2022/12/23 07:03:55;;;;;;;23.33;14.97;;;9.80;99.90;;;;;;6281539;22;20154;-88
2022/12/23 07:06:21;;;;;;;5.17;3.33;;;9.80;99.90;;;;;;6281568;22;20153;-89
2022/12/23 07:08:49;;;;;;;3.77;1.47;;;9.80;99.90;;;;;;6281027;22;20158;-87
2022/12/23 07:11:36;;;;;;;1.17;1.03;;;9.80;99.90;;;;;;6254745;22;20189;-86
2022/12/23 07:14:08;;;;;;;1.77;1.43;;;9.80;99.90;;;;;;6254830;22;20157;-86
2022/12/23 07:16:34;;;;;;;1.27;1.17;;;9.80;99.90;;;;;;6254717;22;20188;-86
2022/12/23 07:19:00;;;;;;;1.23;1.13;;;9.80;99.90;;;;;;6255439;22;20191;-86
2022/12/23 07:21:26;;;;;;;1.20;1.10;;;9.80;99.90;;;;;;6255196;22;20199;-86
2022/12/23 07:23:52;;;;;;;1.60;1.10;;;9.80;99.90;;;;;;6280848;22;20161;-87
2022/12/23 07:26:17;;;;;;;1.40;1.30;;;9.80;99.90;;;;;;6255343;22;20182;-87
2022/12/23 07:28:46;;;;;;;4.00;1.40;;;9.80;99.90;;;;;;6255614;22;20153;-86
2022/12/23 07:31:12;;;;;;;1.50;1.40;;;9.90;99.90;;;;;;6280528;22;20176;-87
2022/12/23 07:33:39;;;;;;;2.87;2.40;;;9.90;99.90;;;;;;6258261;22;20160;-75
2022/12/23 07:36:05;;;;;;;25.70;13.10;;;9.90;99.90;;;;;;6281298;22;20161;-87
2022/12/23 07:38:31;;;;;;;16.87;11.60;;;9.90;99.90;;;;;;6281916;22;20161;-91
2022/12/23 07:40:57;;;;;;;13.47;8.83;;;9.90;99.90;;;;;;6280735;22;20193;-86
2022/12/23 07:43:23;;;;;;;20.53;14.37;;;9.90;99.90;;;;;;6255245;22;20173;-86
2022/12/23 07:45:49;;;;;;;21.00;12.73;;;10.00;99.90;;;;;;6255829;22;20214;-86
2022/12/23 07:48:14;;;;;;;7.87;5.60;;;10.00;99.90;;;;;;6281059;22;20156;-86
2022/12/23 07:50:40;;;;;;;3.00;2.57;;;10.00;99.90;;;;;;6255478;22;20203;-86
2022/12/23 07:53:06;;;;;;;2.37;2.10;;;10.10;99.90;;;;;;6255231;22;20167;-86
2022/12/23 07:55:32;;;;;;;3.03;2.03;;;10.10;99.90;;;;;;6255414;22;20157;-86
2022/12/23 07:57:58;;;;;;;3.47;2.23;;;10.20;99.90;;;;;;6255874;22;20181;-86
2022/12/23 08:00:29;;;;;;;1.90;1.80;;;10.30;99.90;;;;;;6281261;22;20509;-86
2022/12/23 08:02:57;;;;;;;3.50;1.73;;;10.30;99.90;;;;;;6255282;22;20169;-85
2022/12/23 08:05:23;;;;;;;2.40;1.70;;;10.30;99.90;;;;;;6255173;22;20241;-85
2022/12/23 08:07:50;;;;;;;3.03;2.10;;;10.40;99.90;;;;;;6254904;22;20167;-87
2022/12/23 08:10:16;;;;;;;2.87;2.00;;;10.40;99.90;;;;;;6255030;22;20243;-87
2022/12/23 08:12:46;;;;;;;2.37;2.07;;;10.40;99.90;;;;;;6251555;22;20189;-84
2022/12/23 08:15:14;;;;;;;2.30;1.60;;;10.40;99.90;;;;;;6277721;22;20800;-85
2022/12/23 08:17:46;;;;;;;2.23;1.93;;;10.50;99.90;;;;;;6252278;22;20171;-85
2022/12/23 08:20:12;;;;;;;1.97;1.50;;;10.50;99.90;;;;;;6251253;22;20155;-86
2022/12/23 08:22:38;;;;;;;1.93;1.53;;;10.50;99.90;;;;;;6249890;22;20202;-84
2022/12/23 08:25:12;;;;;;;4.70;3.73;;;10.60;99.90;;;;;;6252462;22;20188;-85
2022/12/23 08:27:39;;;;;;;1.73;1.50;;;10.70;99.90;;;;;;6248731;22;20165;-84
2022/12/23 08:30:16;;;;;;;16.07;14.40;;;10.70;99.90;;;;;;6278792;22;20159;-85
2022/12/23 08:32:55;;;;;;;2.07;1.70;;;10.70;99.90;;;;;;6249921;22;20187;-85
2022/12/23 08:36:04;;;;;;;2.90;1.10;;;10.70;99.90;;;;;;6256701;22;20146;-38
2022/12/23 08:38:29;;;;;;;1.20;1.10;;;10.70;99.90;;;;;;6338729;22;20304;-39
2022/12/23 08:40:56;;;;;;;1.40;1.30;;;10.70;99.90;;;;;;6317585;22;20220;-34
2022/12/23 08:43:22;;;;;;;1.80;1.50;;;10.70;99.90;;;;;;6344012;22;20169;-34
2022/12/23 08:45:50;;;;;;;4.43;3.90;;;10.70;99.90;;;;;;6343559;22;20164;-36
2022/12/23 08:48:20;;;;;;;2.70;2.50;;;10.70;99.90;;;;;;6370651;22;20174;-36
2022/12/23 08:50:48;;;;;;;4.73;4.23;;;10.60;99.90;;;;;;6287914;22;20801;-44
2022/12/23 08:53:14;;;;;;;3.27;2.20;;;10.60;99.90;;;;;;6272504;22;20146;-43
2022/12/23 08:55:45;;;;;;;2.97;1.53;;;10.60;99.90;;;;;;6297313;22;20165;-44
2022/12/23 08:58:12;;;;;;;2.13;1.70;;;10.60;99.90;;;;;;6274761;22;20144;-44
2022/12/23 09:00:39;;;;;;;3.00;2.00;;;10.60;99.90;;;;;;6294395;22;20181;-43
2022/12/23 09:03:05;;;;;;;1.87;1.77;;;10.60;99.90;;;;;;6269970;22;20226;-43
2022/12/23 09:05:32;;;;;;;3.47;2.10;;;10.60;99.90;;;;;;6267580;22;20163;-41
2022/12/23 09:07:58;;;;;;;4.90;2.33;;;10.60;99.90;;;;;;6269471;22;20162;-44
2022/12/23 09:10:25;;;;;;;2.60;2.27;;;10.60;99.90;;;;;;6270307;22;20229;-43
2022/12/23 09:12:51;;;;;;;2.40;2.20;;;10.70;99.90;;;;;;6269230;22;20163;-44
2022/12/23 09:15:17;;;;;;;3.90;2.57;;;10.60;99.90;;;;;;6271851;22;20162;-43
2022/12/23 09:17:43;;;;;;;4.07;3.00;;;10.60;99.90;;;;;;6295771;22;20170;-43
2022/12/23 09:20:10;;;;;;;4.47;3.10;;;10.60;99.90;;;;;;6295587;22;20228;-43
2022/12/23 09:22:35;;;;;;;2.77;2.57;;;10.60;99.90;;;;;;6271984;22;20222;-43
2022/12/23 09:25:01;;;;;;;3.23;2.80;;;10.60;99.90;;;;;;6270540;22;20170;-44
2022/12/23 09:27:27;;;;;;;4.13;2.70;;;10.60;99.90;;;;;;6294206;22;20165;-43
2022/12/23 09:29:53;;;;;;;5.57;2.60;;;10.60;99.90;;;;;;6272662;22;20141;-43
2022/12/23 09:32:19;;;;;;;4.00;2.73;;;10.60;99.90;;;;;;6295506;22;20209;-42
2022/12/23 09:34:46;;;;;;;4.77;2.90;;;10.70;99.90;;;;;;6294717;22;20162;-43
2022/12/23 09:37:15;;;;;;;3.63;3.00;;;10.70;99.90;;;;;;6292360;22;20162;-43
2022/12/23 09:39:42;;;;;;;3.57;2.43;;;10.70;99.90;;;;;;6294304;22;20260;-46
2022/12/23 09:42:45;;;;;;;3.47;2.37;;;10.80;99.90;;;;;;6271026;22;20232;-47
2022/12/23 09:45:36;;;;;;;3.90;3.13;;;10.80;99.90;;;;;;6271138;22;20151;-45
2022/12/23 09:48:03;;;;;;;5.27;2.93;;;10.80;99.90;;;;;;6269398;22;20144;-44
2022/12/23 09:50:34;;;;;;;3.10;2.80;;;10.80;99.90;;;;;;6283844;22;20211;-44
2022/12/23 09:53:06;;;;;;;3.87;2.87;;;10.90;99.90;;;;;;6304622;22;20164;-44
2022/12/23 09:55:50;;;;;;;4.13;3.27;;;10.90;99.90;;;;;;6303845;22;20210;-43
2022/12/23 09:58:26;;;;;;;4.00;3.60;;;11.00;99.90;;;;;;6279025;22;20154;-44
2022/12/23 10:01:11;;;;;;;2.70;2.50;;;11.00;99.90;;;;;;6279236;22;20200;-43
2022/12/23 10:04:14;;;;;;;2.57;2.33;;;11.00;99.90;;;;;;6333049;22;20153;-44
2022/12/23 10:06:49;;;;;;;2.50;2.30;;;11.00;99.90;;;;;;6334635;22;20154;-44
2022/12/23 10:09:17;;;;;;;4.00;2.40;;;11.10;99.90;;;;;;6307311;22;20203;-43
2022/12/23 10:11:50;;;;;;;2.63;2.23;;;11.10;99.90;;;;;;6307231;22;20193;-43
2022/12/23 10:14:28;;;;;;;2.20;1.80;;;11.20;99.90;;;;;;6308312;22;20157;-42
2022/12/23 10:17:03;;;;;;;4.10;2.40;;;11.30;99.90;;;;;;6336153;22;20166;-44
2022/12/23 10:19:41;;;;;;;9.77;5.40;;;11.40;99.90;;;;;;6330687;22;20206;-44
2022/12/23 10:22:29;;;;;;;8.70;4.53;;;11.50;99.90;;;;;;6336679;22;20189;-44
2022/12/23 10:24:56;;;;;;;5.03;3.13;;;11.50;99.90;;;;;;6309415;22;20161;-45
2022/12/23 10:27:33;;;;;;;6.17;4.13;;;11.60;99.90;;;;;;6310452;22;20161;-44
2022/12/23 10:30:02;;;;;;;6.27;4.27;;;11.70;99.90;;;;;;6335535;22;20161;-44
2022/12/23 10:33:24;;;;;;;4.70;2.70;;;11.70;99.90;;;;;;6336271;22;20161;-44
2022/12/23 10:36:02;;;;;;;1.50;1.40;;;11.80;99.90;;;;;;6214667;23;20168;-44
2022/12/23 10:38:38;;;;;;;1.80;1.40;;;11.90;99.90;;;;;;6240335;23;20160;-44
2022/12/23 10:41:29;;;;;;;1.57;1.47;;;11.90;99.90;;;;;;6274147;22;20202;-44
2022/12/23 10:44:05;;;;;;;2.03;1.60;;;12.00;99.90;;;;;;6336483;22;20164;-44
2022/12/23 10:47:08;;;;;;;1.93;1.30;;;12.00;99.90;;;;;;6336088;22;20188;-45
2022/12/23 10:50:13;;;;;;;1.50;0.80;;;12.10;99.90;;;;;;6335558;22;20154;-44
2022/12/23 10:52:42;;;;;;;4.83;1.70;;;12.10;99.90;;;;;;6337049;22;20601;-44
2022/12/23 10:55:31;;;;;;;2.00;1.20;;;12.10;99.90;;;;;;6310666;22;20156;-44
2022/12/23 10:58:13;;;;;;;1.23;1.10;;;12.20;99.90;;;;;;6337097;22;20157;-45
2022/12/23 11:00:50;;;;;;;3.00;1.73;;;12.20;99.90;;;;;;6333690;22;20178;-44
2022/12/23 11:03:22;;;;;;;1.97;1.77;;;12.20;99.90;;;;;;6308402;22;20204;-44
2022/12/23 11:05:51;;;;;;;2.40;1.70;;;12.20;99.90;;;;;;6308772;22;20264;-44
2022/12/23 11:08:20;;;;;;;3.40;2.00;;;12.20;99.90;;;;;;6335741;22;20159;-44
2022/12/23 11:10:47;;;;;;;2.70;1.90;;;12.20;99.90;;;;;;6307811;22;20185;-44
2022/12/23 11:13:44;;;;;;;3.40;2.07;;;12.20;99.90;;;;;;6308325;22;20178;-44
2022/12/23 11:16:26;;;;;;;1.50;1.40;;;12.20;99.90;;;;;;6270139;22;20165;-45
2022/12/23 11:19:02;;;;;;;1.60;1.30;;;12.20;99.90;;;;;;6332910;22;20200;-41
2022/12/23 11:21:30;;;;;;;1.93;1.60;;;12.20;99.90;;;;;;6307255;22;20221;-43
2022/12/23 11:24:06;;;;;;;1.00;1.00;;;12.20;99.90;;;;;;6307153;22;20156;-43
2022/12/23 11:26:32;;;;;;;2.93;2.13;;;12.20;99.90;;;;;;6281259;22;20151;-44
2022/12/23 11:29:06;;;;;;;9.40;6.27;;;12.20;99.90;;;;;;6334342;22;20410;-44
2022/12/23 11:31:35;;;;;;;11.17;7.70;;;12.20;99.90;;;;;;6308125;22;20171;-44
2022/12/23 11:34:11;;;;;;;9.03;5.87;;;12.20;99.90;;;;;;6307352;22;20163;-44
2022/12/23 11:36:37;;;;;;;14.53;9.40;;;12.20;99.90;;;;;;6308074;22;20162;-44
2022/12/23 11:39:12;;;;;;;10.33;7.80;;;12.20;99.90;;;;;;6307614;22;20208;-44
2022/12/23 11:41:44;;;;;;;4.10;3.70;;;12.20;99.90;;;;;;6307598;22;20187;-45
2022/12/23 11:44:21;;;;;;;3.07;2.40;;;12.20;99.90;;;;;;6307875;22;20159;-44
2022/12/23 11:46:47;;;;;;;2.70;1.57;;;12.20;99.90;;;;;;6336536;22;20139;-45
2022/12/23 11:49:24;;;;;;;1.87;1.50;;;12.20;99.90;;;;;;6308566;22;20150;-44
2022/12/23 11:52:05;;;;;;;3.73;2.10;;;12.20;99.90;;;;;;6308340;22;20190;-45
2022/12/23 11:54:32;;;;;;;3.37;1.83;;;12.10;99.90;;;;;;6308130;22;20229;-44
2022/12/23 11:57:00;;;;;;;2.43;1.40;;;12.20;99.90;;;;;;6308360;22;20155;-44
2022/12/23 11:59:39;;;;;;;1.27;1.17;;;12.10;99.90;;;;;;6308544;22;20158;-44
2022/12/23 12:02:30;;;;;;;1.87;1.27;;;12.10;99.90;;;;;;6334304;22;20191;-44
2022/12/23 12:05:07;;;;;;;2.90;1.97;;;12.10;99.90;;;;;;6335849;22;20177;-44
2022/12/23 12:07:34;;;;;;;2.30;2.03;;;12.10;99.90;;;;;;6308312;22;20600;-44
2022/12/23 12:10:01;;;;;;;2.07;1.87;;;12.10;99.90;;;;;;6308097;22;20182;-44
2022/12/23 12:12:28;;;;;;;3.27;2.10;;;12.10;99.90;;;;;;6308544;22;20169;-44
2022/12/23 12:14:56;;;;;;;2.03;1.70;;;12.10;99.90;;;;;;6308375;22;20163;-44
2022/12/23 12:17:26;;;;;;;2.37;1.90;;;12.10;99.90;;;;;;6307838;22;20166;-44
2022/12/23 12:20:01;;;;;;;4.83;2.63;;;12.10;99.90;;;;;;6282267;22;20163;-44
2022/12/23 12:23:02;;;;;;;8.10;4.47;;;12.10;99.90;;;;;;6335445;22;20244;-44
2022/12/23 12:25:33;;;;;;;8.17;4.60;;;12.10;99.90;;;;;;6272700;22;20158;-43
2022/12/23 12:28:03;;;;;;;7.07;4.40;;;12.10;99.90;;;;;;6307838;22;20155;-44
2022/12/23 12:30:57;;;;;;;7.87;5.53;;;12.10;99.90;;;;;;6307498;22;20267;-44
2022/12/23 12:33:42;;;;;;;6.13;4.60;;;12.10;99.90;;;;;;6278632;22;20194;-44
2022/12/23 12:36:14;;;;;;;4.60;4.07;;;12.10;99.90;;;;;;6335928;22;20204;-44
2022/12/23 12:38:44;;;;;;;7.20;4.53;;;12.20;99.90;;;;;;6335136;22;20135;-44
2022/12/23 12:41:37;;;;;;;11.20;8.23;;;12.20;99.90;;;;;;6307569;22;20189;-44
2022/12/23 12:44:23;;;;;;;13.27;8.73;;;12.20;99.90;;;;;;6306457;22;20226;-44
2022/12/23 12:47:13;;;;;;;6.37;4.80;;;12.20;99.90;;;;;;6335758;22;20139;-44
2022/12/23 12:50:01;;;;;;;4.83;4.10;;;12.10;99.90;;;;;;6305911;22;20212;-44
2022/12/23 12:52:29;;;;;;;4.77;3.10;;;12.10;99.90;;;;;;6306974;22;20158;-45
2022/12/23 12:55:15;;;;;;;6.03;3.97;;;12.20;99.90;;;;;;6307532;22;20692;-44
2022/12/23 12:57:41;;;;;;;5.50;3.63;;;12.20;99.90;;;;;;6335428;22;20215;-44
2022/12/23 13:00:17;;;;;;;3.80;2.50;;;12.20;99.90;;;;;;6334473;22;20166;-44
2022/12/23 13:02:46;;;;;;;2.87;2.30;;;12.20;99.90;;;;;;6307405;22;20162;-45
2022/12/23 13:05:35;;;;;;;2.27;2.07;;;12.20;99.90;;;;;;6281873;22;20602;-44
2022/12/23 13:08:14;;;;;;;3.73;2.57;;;12.30;99.90;;;;;;6293560;22;20155;-43
2022/12/23 13:10:52;;;;;;;4.10;2.80;;;12.30;99.90;;;;;;6332108;22;20260;-44
2022/12/23 13:13:27;;;;;;;3.93;2.50;;;12.30;99.90;;;;;;6279353;22;20159;-44
2022/12/23 13:16:11;;;;;;;3.80;2.83;;;12.30;99.90;;;;;;6307307;22;20142;-44
2022/12/23 13:19:03;;;;;;;3.03;2.40;;;12.40;99.90;;;;;;6307053;22;20155;-44
2022/12/23 13:21:46;;;;;;;2.57;1.87;;;12.40;99.90;;;;;;6335035;22;20215;-44
2022/12/23 13:24:24;;;;;;;2.03;1.83;;;12.50;99.90;;;;;;6335366;22;20144;-44
2022/12/23 13:27:10;;;;;;;4.23;3.30;;;12.50;99.90;;;;;;6334827;22;20181;-45
2022/12/23 13:29:59;;;;;;;8.90;5.67;;;12.50;99.90;;;;;;6307029;22;20151;-43
2022/12/23 13:32:39;;;;;;;2.23;1.80;;;12.50;99.90;;;;;;6307586;22;20174;-44
2022/12/23 13:35:17;;;;;;;3.00;2.50;;;12.50;99.90;;;;;;6307156;22;20146;-44